Time;durP1;ratioP1;P1;durP2;ratioP2;P2;SDS_P1;SDS_P2;PMS_P1;PMS_P2;Temp;Humidity;BMP_temperature;BMP_pressure;BME280_temperature;BME280_humidity;BME280_pressure;Samples;Min_cycle;Max_cycle;Signal;HPM_P1;HPM_P2
2022/12/09 00:00:28;;;;;;;;;;;;;;;;;;5067796;28;19951;-60
2022/12/09 00:02:53;;;;;;;;;;;;;;;;;;5068511;28;20452;-59
2022/12/09 00:05:19;;;;;;;;;;;;;;;;;;5067419;28;19920;-60
2022/12/09 00:07:45;;;;;;;;;;;;;;;;;;5067591;28;19924;-60
2022/12/09 00:10:11;;;;;;;;;;;;;;;;;;5068299;28;19986;-60
2022/12/09 00:12:37;;;;;;;;;;;;;;;;;;5066824;28;19920;-60
2022/12/09 00:15:03;;;;;;;;;;;;;;;;;;5066434;28;19924;-60
2022/12/09 00:17:29;;;;;;;;;;;;;;;;;;5067565;28;20360;-60
2022/12/09 00:19:55;;;;;;;;;;;;;;;;;;5066014;28;19927;-60
2022/12/09 00:22:21;;;;;;;;;;;;;;;;;;5066420;28;19925;-60
2022/12/09 00:24:47;;;;;;;;;;;;;;;;;;5066944;28;20491;-60
2022/12/09 00:27:12;;;;;;;;;;;;;;;;;;5065778;28;19964;-60
2022/12/09 00:29:39;;;;;;;;;;;;;;;;;;5068126;28;19924;-60
2022/12/09 00:32:05;;;;;;;;;;;;;;;;;;5067933;28;19966;-60
2022/12/09 00:34:31;;;;;;;;;;;;;;;;;;5065695;28;19924;-60
2022/12/09 00:36:57;;;;;;;;;;;;;;;;;;5066858;28;19977;-60
2022/12/09 00:39:23;;;;;;;;;;;;;;;;;;5067833;28;19980;-60
2022/12/09 00:41:50;;;;;;;;;;;;;;;;;;5066163;28;19927;-60
2022/12/09 00:44:16;;;;;;;;;;;;;;;;;;5067648;28;19935;-60
2022/12/09 00:46:41;;;;;;;;;;;;;;;;;;5068148;28;19924;-60
2022/12/09 00:49:07;;;;;;;;;;;;;;;;;;5067535;28;19928;-60
2022/12/09 00:51:33;;;;;;;;;;;;;;;;;;5067696;28;19954;-60
2022/12/09 00:53:59;;;;;;;;;;;;;;;;;;5066227;28;19974;-60
2022/12/09 00:56:26;;;;;;;;;;;;;;;;;;5066386;28;19974;-60
2022/12/09 00:58:52;;;;;;;;;;;;;;;;;;5067376;28;19973;-60
2022/12/09 01:01:18;;;;;;;;;;;;;;;;;;5067069;28;20276;-60
2022/12/09 01:03:44;;;;;;;;;;;;;;;;;;5066532;28;19957;-60
2022/12/09 01:06:10;;;;;;;;;;;;;;;;;;5067193;28;19925;-61
2022/12/09 01:08:36;;;;;;;;;;;;;;;;;;5067685;28;19928;-59
2022/12/09 01:11:02;;;;;;;;;;;;;;;;;;5066127;28;19924;-60
2022/12/09 01:13:28;;;;;;;;;;;;;;;;;;5066993;28;19935;-60
2022/12/09 01:15:54;;;;;;;;;;;;;;;;;;5067245;28;19924;-60
2022/12/09 01:18:20;;;;;;;;;;;;;;;;;;5066696;28;19924;-60
2022/12/09 01:20:46;;;;;;;;;;;;;;;;;;5067506;28;19970;-60
2022/12/09 01:23:11;;;;;;;;;;;;;;;;;;5066788;28;19931;-60
2022/12/09 01:25:37;;;;;;;;;;;;;;;;;;5066714;28;20034;-60
2022/12/09 01:28:03;;;;;;;;;;;;;;;;;;5066768;28;19927;-60
2022/12/09 01:30:29;;;;;;;;;;;;;;;;;;5064282;28;19950;-60
2022/12/09 01:32:55;;;;;;;;;;;;;;;;;;5066264;28;20366;-60
2022/12/09 01:35:21;;;;;;;;;;;;;;;;;;5065953;28;19935;-60
2022/12/09 01:37:47;;;;;;;;;;;;;;;;;;5065842;28;19920;-60
2022/12/09 01:40:15;;;;;;;;;;;;;;;;;;5066059;28;20015;-60
2022/12/09 01:42:41;;;;;;;;;;;;;;;;;;5066538;28;19970;-60
2022/12/09 01:45:07;;;;;;;;;;;;;;;;;;5065802;28;19967;-60
2022/12/09 01:47:33;;;;;;;;;;;;;;;;;;5066421;28;20025;-60
2022/12/09 01:49:59;;;;;;;;;;;;;;;;;;5066050;28;20276;-60
2022/12/09 01:52:25;;;;;;;;;;;;;;;;;;5064779;28;19920;-60
2022/12/09 01:54:50;;;;;;;;;;;;;;;;;;5065956;28;20312;-60
2022/12/09 01:57:16;;;;;;;;;;;;;;;;;;5066218;28;19924;-59
2022/12/09 01:59:42;;;;;;;;;;;;;;;;;;5065818;28;19920;-60
2022/12/09 02:02:08;;;;;;;;;;;;;;;;;;5066216;28;20540;-60
2022/12/09 02:04:34;;;;;;;;;;;;;;;;;;5066566;28;20011;-60
2022/12/09 02:07:00;;;;;;;;;;;;;;;;;;5065230;28;19924;-60
2022/12/09 02:09:26;;;;;;;;;;;;;;;;;;5065946;28;19931;-60
2022/12/09 02:11:52;;;;;;;;;;;;;;;;;;5065802;28;19920;-60
2022/12/09 02:14:18;;;;;;;;;;;;;;;;;;5064880;28;20333;-60
2022/12/09 02:16:44;;;;;;;;;;;;;;;;;;5066278;28;19924;-60
2022/12/09 02:19:10;;;;;;;;;;;;;;;;;;5065801;28;21661;-60
2022/12/09 02:21:36;;;;;;;;;;;;;;;;;;5065671;28;19927;-60
2022/12/09 02:24:01;;;;;;;;;;;;;;;;;;5065430;28;19982;-60
2022/12/09 02:26:27;;;;;;;;;;;;;;;;;;5066033;28;19920;-60
2022/12/09 02:28:53;;;;;;;;;;;;;;;;;;5065076;28;20379;-60
2022/12/09 02:31:19;;;;;;;;;;;;;;;;;;5065891;28;19920;-60
2022/12/09 02:33:45;;;;;;;;;;;;;;;;;;5065602;28;19928;-60
2022/12/09 02:36:11;;;;;;;;;;;;;;;;;;5064514;28;20397;-60
2022/12/09 02:38:37;;;;;;;;;;;;;;;;;;5065905;28;19927;-61
2022/12/09 02:41:03;;;;;;;;;;;;;;;;;;5064592;28;19924;-60
2022/12/09 02:43:29;;;;;;;;;;;;;;;;;;5065431;28;19924;-60
2022/12/09 02:45:55;;;;;;;;;;;;;;;;;;5065097;28;20486;-60
2022/12/09 02:48:20;;;;;;;;;;;;;;;;;;5064791;28;20011;-60
2022/12/09 02:50:47;;;;;;;;;;;;;;;;;;5065569;28;20359;-60
2022/12/09 02:53:13;;;;;;;;;;;;;;;;;;5064528;28;19932;-60
2022/12/09 02:55:38;;;;;;;;;;;;;;;;;;5065594;28;20022;-60
2022/12/09 02:58:04;;;;;;;;;;;;;;;;;;5065439;28;19920;-60
2022/12/09 03:00:30;;;;;;;;;;;;;;;;;;5065486;28;19924;-60
2022/12/09 03:02:56;;;;;;;;;;;;;;;;;;5064012;28;20505;-60
2022/12/09 03:05:22;;;;;;;;;;;;;;;;;;5064775;28;19920;-60
2022/12/09 03:07:48;;;;;;;;;;;;;;;;;;5065210;28;19920;-60
2022/12/09 03:10:14;;;;;;;;;;;;;;;;;;5064051;28;19964;-60
2022/12/09 03:12:40;;;;;;;;;;;;;;;;;;5065431;28;20357;-60
2022/12/09 03:15:06;;;;;;;;;;;;;;;;;;5065145;28;19924;-60
2022/12/09 03:17:32;;;;;;;;;;;;;;;;;;5063960;28;19955;-60
2022/12/09 03:19:58;;;;;;;;;;;;;;;;;;5064930;28;19927;-60
2022/12/09 03:22:24;;;;;;;;;;;;;;;;;;5065171;28;20357;-61
2022/12/09 03:24:50;;;;;;;;;;;;;;;;;;5064422;28;19920;-60
2022/12/09 03:27:16;;;;;;;;;;;;;;;;;;5064090;28;19927;-60
2022/12/09 03:29:41;;;;;;;;;;;;;;;;;;5065551;28;19924;-60
2022/12/09 03:32:07;;;;;;;;;;;;;;;;;;5063965;28;19921;-59
2022/12/09 03:34:34;;;;;;;;;;;;;;;;;;5065081;28;20275;-61
2022/12/09 03:37:00;;;;;;;;;;;;;;;;;;5064717;28;19928;-60
2022/12/09 03:39:26;;;;;;;;;;;;;;;;;;5064220;28;19931;-60
2022/12/09 03:41:52;;;;;;;;;;;;;;;;;;5065513;28;19971;-60
2022/12/09 03:44:18;;;;;;;;;;;;;;;;;;5063981;28;19920;-60
2022/12/09 03:46:43;;;;;;;;;;;;;;;;;;5065054;28;19924;-60
2022/12/09 03:49:09;;;;;;;;;;;;;;;;;;5064580;28;19920;-60
2022/12/09 03:51:35;;;;;;;;;;;;;;;;;;5064485;28;20504;-60
2022/12/09 03:54:01;;;;;;;;;;;;;;;;;;5064646;28;19934;-60
2022/12/09 03:56:27;;;;;;;;;;;;;;;;;;5064867;28;19920;-60
2022/12/09 03:58:53;;;;;;;;;;;;;;;;;;5064005;28;19920;-60
2022/12/09 04:01:19;;;;;;;;;;;;;;;;;;5064164;28;19924;-60
2022/12/09 04:03:45;;;;;;;;;;;;;;;;;;5064931;28;19921;-60
2022/12/09 04:06:11;;;;;;;;;;;;;;;;;;5063620;28;19963;-60
2022/12/09 04:08:37;;;;;;;;;;;;;;;;;;5097604;28;19990;-60
2022/12/09 04:11:03;;;;;;;;;;;;;;;;;;5064306;28;20424;-60
2022/12/09 04:13:29;;;;;;;;;;;;;;;;;;5063999;28;19920;-60
2022/12/09 04:15:54;;;;;;;;;;;;;;;;;;5066702;28;19920;-60
2022/12/09 04:18:20;;;;;;;;;;;;;;;;;;5067667;28;19924;-60
2022/12/09 04:20:46;;;;;;;;;;;;;;;;;;5067781;28;19928;-60
2022/12/09 04:23:12;;;;;;;;;;;;;;;;;;5067555;28;20332;-60
2022/12/09 04:25:38;;;;;;;;;;;;;;;;;;5068845;28;20005;-60
2022/12/09 04:28:04;;;;;;;;;;;;;;;;;;5067467;28;20016;-60
2022/12/09 04:30:30;;;;;;;;;;;;;;;;;;5067736;28;20451;-60
2022/12/09 04:32:56;;;;;;;;;;;;;;;;;;5067932;28;19925;-60
2022/12/09 04:35:22;;;;;;;;;;;;;;;;;;5066449;28;19925;-60
2022/12/09 04:37:47;;;;;;;;;;;;;;;;;;5068125;28;20298;-60
2022/12/09 04:40:13;;;;;;;;;;;;;;;;;;5067227;28;19929;-60
2022/12/09 04:42:39;;;;;;;;;;;;;;;;;;5067814;28;19920;-60
2022/12/09 04:45:05;;;;;;;;;;;;;;;;;;5067763;28;19927;-60
2022/12/09 04:47:31;;;;;;;;;;;;;;;;;;5066837;28;19964;-60
2022/12/09 04:49:57;;;;;;;;;;;;;;;;;;5067302;28;20003;-60
2022/12/09 04:52:23;;;;;;;;;;;;;;;;;;5067135;28;20390;-60
2022/12/09 04:54:49;;;;;;;;;;;;;;;;;;5067034;28;19920;-60
2022/12/09 04:57:15;;;;;;;;;;;;;;;;;;5066860;28;19934;-60
2022/12/09 04:59:41;;;;;;;;;;;;;;;;;;5068039;28;19930;-60
2022/12/09 05:02:07;;;;;;;;;;;;;;;;;;5066306;28;20363;-60
2022/12/09 05:04:33;;;;;;;;;;;;;;;;;;5067253;28;20011;-60
2022/12/09 05:06:58;;;;;;;;;;;;;;;;;;5067284;28;19965;-60
2022/12/09 05:09:24;;;;;;;;;;;;;;;;;;5066452;28;20317;-60
2022/12/09 05:11:50;;;;;;;;;;;;;;;;;;5067416;28;19924;-60
2022/12/09 05:14:16;;;;;;;;;;;;;;;;;;5066510;28;19931;-60
2022/12/09 05:16:42;;;;;;;;;;;;;;;;;;5065739;28;19920;-60
2022/12/09 05:19:08;;;;;;;;;;;;;;;;;;5068489;28;19990;-60
2022/12/09 05:21:34;;;;;;;;;;;;;;;;;;5067790;28;19920;-59
2022/12/09 05:24:00;;;;;;;;;;;;;;;;;;5065951;28;19928;-60
2022/12/09 05:26:26;;;;;;;;;;;;;;;;;;5066814;28;19924;-60
2022/12/09 05:28:52;;;;;;;;;;;;;;;;;;5068018;28;19997;-60
2022/12/09 05:31:18;;;;;;;;;;;;;;;;;;5065645;28;20337;-60
2022/12/09 05:33:44;;;;;;;;;;;;;;;;;;5067019;28;20395;-60
2022/12/09 05:36:10;;;;;;;;;;;;;;;;;;5066511;28;19921;-60
2022/12/09 05:38:36;;;;;;;;;;;;;;;;;;5066772;28;19929;-60
2022/12/09 05:41:01;;;;;;;;;;;;;;;;;;5066151;28;20011;-60
2022/12/09 05:43:27;;;;;;;;;;;;;;;;;;5066228;28;19924;-60
2022/12/09 05:45:53;;;;;;;;;;;;;;;;;;5066283;28;20367;-60
2022/12/09 05:48:19;;;;;;;;;;;;;;;;;;5066312;28;20014;-60
2022/12/09 05:50:45;;;;;;;;;;;;;;;;;;5066135;28;20006;-60
2022/12/09 05:53:11;;;;;;;;;;;;;;;;;;5066322;28;20275;-60
2022/12/09 05:55:37;;;;;;;;;;;;;;;;;;5067076;28;19920;-60
2022/12/09 05:58:03;;;;;;;;;;;;;;;;;;5065415;28;19931;-60
2022/12/09 06:00:29;;;;;;;;;;;;;;;;;;5098378;28;20271;-60
2022/12/09 06:02:54;;;;;;;;;;;;;;;;;;5066375;28;19920;-60
2022/12/09 06:05:20;;;;;;;;;;;;;;;;;;5064957;28;19950;-60
2022/12/09 06:07:46;;;;;;;;;;;;;;;;;;5066450;28;19994;-59
2022/12/09 06:10:12;;;;;;;;;;;;;;;;;;5065880;28;19966;-60
2022/12/09 06:12:38;;;;;;;;;;;;;;;;;;5063240;28;19920;-60
2022/12/09 06:15:04;;;;;;;;;;;;;;;;;;5065507;28;19929;-60
2022/12/09 06:17:30;;;;;;;;;;;;;;;;;;5064776;28;20386;-60
2022/12/09 06:19:56;;;;;;;;;;;;;;;;;;5065558;28;19985;-60
2022/12/09 06:22:22;;;;;;;;;;;;;;;;;;5065602;28;19981;-60
2022/12/09 06:24:48;;;;;;;;;;;;;;;;;;5066413;28;19920;-60
2022/12/09 06:27:14;;;;;;;;;;;;;;;;;;5064365;28;19924;-60
2022/12/09 06:29:39;;;;;;;;;;;;;;;;;;5066260;28;20382;-60
2022/12/09 06:32:05;;;;;;;;;;;;;;;;;;5066294;28;19921;-60
2022/12/09 06:34:31;;;;;;;;;;;;;;;;;;5065182;28;19962;-60
2022/12/09 06:36:57;;;;;;;;;;;;;;;;;;5066342;28;19920;-60
2022/12/09 06:39:23;;;;;;;;;;;;;;;;;;5064038;28;19920;-60
2022/12/09 06:41:49;;;;;;;;;;;;;;;;;;5065773;28;19996;-59
2022/12/09 06:44:15;;;;;;;;;;;;;;;;;;5065576;28;20417;-60
2022/12/09 06:46:41;;;;;;;;;;;;;;;;;;5066379;28;19931;-60
2022/12/09 06:49:07;;;;;;;;;;;;;;;;;;5065303;28;19931;-60
2022/12/09 06:51:33;;;;;;;;;;;;;;;;;;5065449;28;20967;-60
2022/12/09 06:53:58;;;;;;;;;;;;;;;;;;5065631;28;19920;-60
2022/12/09 06:56:24;;;;;;;;;;;;;;;;;;5064521;28;19924;-60
2022/12/09 06:58:50;;;;;;;;;;;;;;;;;;5065612;28;19958;-60
2022/12/09 07:01:16;;;;;;;;;;;;;;;;;;5063979;28;19971;-60
2022/12/09 07:03:42;;;;;;;;;;;;;;;;;;5065056;28;20312;-60
2022/12/09 07:06:08;;;;;;;;;;;;;;;;;;5064583;28;20358;-60
2022/12/09 07:08:34;;;;;;;;;;;;;;;;;;5064994;28;19931;-60
2022/12/09 07:11:00;;;;;;;;;;;;;;;;;;5065382;28;19924;-60
2022/12/09 07:13:26;;;;;;;;;;;;;;;;;;5064854;28;19960;-60
2022/12/09 07:15:52;;;;;;;;;;;;;;;;;;5065349;28;19928;-60
2022/12/09 07:18:18;;;;;;;;;;;;;;;;;;5064435;28;21526;-60
2022/12/09 07:20:44;;;;;;;;;;;;;;;;;;5065238;28;20456;-59
2022/12/09 07:23:10;;;;;;;;;;;;;;;;;;5064253;28;19920;-60
2022/12/09 07:25:35;;;;;;;;;;;;;;;;;;5065294;28;19924;-60
2022/12/09 07:28:01;;;;;;;;;;;;;;;;;;5064837;28;19938;-60
2022/12/09 07:30:27;;;;;;;;;;;;;;;;;;5064276;28;20003;-60
2022/12/09 07:32:53;;;;;;;;;;;;;;;;;;5065271;28;20320;-60
2022/12/09 07:35:19;;;;;;;;;;;;;;;;;;5064590;28;20601;-60
2022/12/09 07:37:45;;;;;;;;;;;;;;;;;;5064555;28;19924;-60
2022/12/09 07:40:11;;;;;;;;;;;;;;;;;;5064861;28;19932;-60
2022/12/09 07:42:37;;;;;;;;;;;;;;;;;;5065547;28;20026;-60
2022/12/09 07:45:03;;;;;;;;;;;;;;;;;;5064455;28;19924;-60
2022/12/09 07:47:29;;;;;;;;;;;;;;;;;;5065101;28;19978;-60
2022/12/09 07:49:55;;;;;;;;;;;;;;;;;;5065765;28;19946;-60
2022/12/09 07:52:20;;;;;;;;;;;;;;;;;;5067071;28;19978;-60
2022/12/09 07:54:46;;;;;;;;;;;;;;;;;;5069053;28;20458;-60
2022/12/09 07:57:12;;;;;;;;;;;;;;;;;;5068084;28;19967;-60
2022/12/09 07:59:38;;;;;;;;;;;;;;;;;;5070457;28;19932;-60
2022/12/09 08:02:04;;;;;;;;;;;;;;;;;;5068415;28;19920;-60
2022/12/09 08:04:30;;;;;;;;;;;;;;;;;;5067554;28;20433;-60
2022/12/09 08:06:56;;;;;;;;;;;;;;;;;;5068757;28;19924;-60
2022/12/09 08:09:22;;;;;;;;;;;;;;;;;;5067929;28;19924;-60
2022/12/09 08:11:48;;;;;;;;;;;;;;;;;;5066495;28;19921;-60
2022/12/09 08:14:14;;;;;;;;;;;;;;;;;;5068328;28;19924;-60
2022/12/09 08:16:40;;;;;;;;;;;;;;;;;;5069552;28;19927;-60
2022/12/09 08:19:06;;;;;;;;;;;;;;;;;;5068694;28;19927;-60
2022/12/09 08:21:31;;;;;;;;;;;;;;;;;;5070090;28;20670;-60
2022/12/09 08:23:57;;;;;;;;;;;;;;;;;;5070058;28;20014;-60
2022/12/09 08:26:23;;;;;;;;;;;;;;;;;;5068054;28;19966;-61
2022/12/09 08:28:49;;;;;;;;;;;;;;;;;;5068592;28;19927;-60
2022/12/09 08:31:15;;;;;;;;;;;;;;;;;;5068384;28;20000;-60
2022/12/09 08:33:41;;;;;;;;;;;;;;;;;;5068253;28;19924;-60
2022/12/09 08:36:07;;;;;;;;;;;;;;;;;;5067270;28;20019;-60
2022/12/09 08:38:33;;;;;;;;;;;;;;;;;;5068283;28;19977;-59
2022/12/09 08:40:59;;;;;;;;;;;;;;;;;;5066880;28;20390;-60
2022/12/09 08:43:25;;;;;;;;;;;;;;;;;;5068477;28;19927;-59
2022/12/09 08:45:51;;;;;;;;;;;;;;;;;;5072308;28;19924;-59
2022/12/09 08:48:16;;;;;;;;;;;;;;;;;;5064609;28;20015;-60
2022/12/09 08:50:42;;;;;;;;;;;;;;;;;;5062146;28;19920;-60
2022/12/09 08:53:08;;;;;;;;;;;;;;;;;;5064784;28;20201;-54
2022/12/09 08:55:37;;;;;;;;;;;;;;;;;;5066274;28;20443;-56
2022/12/09 08:58:03;;;;;;;;;;;;;;;;;;5067030;28;19928;-61
2022/12/09 09:00:29;;;;;;;;;;;;;;;;;;5067086;28;20272;-57
2022/12/09 09:02:55;;;;;;;;;;;;;;;;;;5065126;28;19927;-62
2022/12/09 09:05:21;;;;;;;;;;;;;;;;;;5066544;28;19970;-60
2022/12/09 09:07:47;;;;;;;;;;;;;;;;;;5068117;28;19924;-60
2022/12/09 09:10:13;;;;;;;;;;;;;;;;;;5067781;28;20333;-59
2022/12/09 09:12:39;;;;;;;;;;;;;;;;;;5069450;28;19920;-60
2022/12/09 09:15:05;;;;;;;;;;;;;;;;;;5067801;28;19974;-60
2022/12/09 09:17:31;;;;;;;;;;;;;;;;;;5067939;28;19960;-60
2022/12/09 09:19:57;;;;;;;;;;;;;;;;;;5068591;28;20035;-60
2022/12/09 09:22:22;;;;;;;;;;;;;;;;;;5065430;28;19921;-59
2022/12/09 09:24:51;;;;;;;;;;;;;;;;;;5065924;28;19935;-60
2022/12/09 09:27:16;;;;;;;;;;;;;;;;;;5067481;28;20433;-60
2022/12/09 09:29:42;;;;;;;;;;;;;;;;;;5067441;28;19970;-59
2022/12/09 09:32:08;;;;;;;;;;;;;;;;;;5068967;28;19974;-60
2022/12/09 09:34:34;;;;;;;;;;;;;;;;;;5068608;28;19920;-60
2022/12/09 09:37:00;;;;;;;;;;;;;;;;;;5067361;28;20419;-60
2022/12/09 09:39:26;;;;;;;;;;;;;;;;;;5066049;28;19921;-60
2022/12/09 09:41:52;;;;;;;;;;;;;;;;;;5065816;28;19921;-59
2022/12/09 09:44:18;;;;;;;;;;;;;;;;;;5066449;28;19921;-59
2022/12/09 09:46:44;;;;;;;;;;;;;;;;;;5068644;28;19921;-59
2022/12/09 09:49:10;;;;;;;;;;;;;;;;;;5067784;28;19931;-61
2022/12/09 09:51:36;;;;;;;;;;;;;;;;;;5067481;28;20383;-61
2022/12/09 09:54:02;;;;;;;;;;;;;;;;;;5067648;28;19946;-60
2022/12/09 09:56:27;;;;;;;;;;;;;;;;;;5066200;28;19974;-61
2022/12/09 09:58:53;;;;;;;;;;;;;;;;;;5068129;28;19997;-61
2022/12/09 10:01:21;;;;;;;18.30;11.25;;;;;;;;;;5067915;28;20237;-61
2022/12/09 10:04:05;;;;;;;18.95;12.13;;;;;;;;;;5067210;28;20142;-60
2022/12/09 10:06:31;;;;;;;20.73;11.88;;;;;;;;;;5074235;28;20399;-60
2022/12/09 10:08:57;;;;;;;;;;;;;;;;;;5067476;28;20101;-60
2022/12/09 10:11:45;;;;;;;18.50;10.98;;;;;;;;;;5069960;28;19967;-60
2022/12/09 10:14:30;;;;;;;19.10;10.77;;;;;;;;;;5061581;28;20067;-60
2022/12/09 10:17:05;;;;;;;17.40;10.48;;;;;;;;;;5074174;28;20486;-60
2022/12/09 10:19:39;;;;;;;16.45;9.95;;;;;;;;;;5063583;28;20045;-60
2022/12/09 10:22:17;;;;;;;17.95;11.38;;;;;;;;;;5056596;28;20504;-60
2022/12/09 10:24:43;;;;;;;;;;;;;;;;;;5066910;28;20454;-60
2022/12/09 10:27:09;;;;;;;;;;;;;;;;;;5059923;28;19920;-60
2022/12/09 10:29:35;;;;;;;;;;;;;;;;;;5067624;28;19920;-60
2022/12/09 10:32:01;;;;;;;;;;;;;;;;;;5066848;28;20338;-60
2022/12/09 10:34:27;;;;;;;;;;;;;;;;;;5065380;28;20298;-60
2022/12/09 10:36:52;;;;;;;;;;;;;;;;;;5066696;28;19921;-60
2022/12/09 10:39:18;;;;;;;;;;;;;;;;;;5065818;28;20117;-59
2022/12/09 10:44:29;;;;;;;;;;;;;;;;;;5057686;28;20395;-60
2022/12/09 10:46:55;;;;;;;;;;;;;;;;;;5065055;28;20272;-60
2022/12/09 10:49:21;;;;;;;;;;;;;;;;;;5066518;28;19924;-59
2022/12/09 10:51:47;;;;;;;;;;;;;;;;;;5067016;28;19924;-60
2022/12/09 10:54:13;;;;;;;;;;;;;;;;;;5065865;28;19920;-60
2022/12/09 10:56:39;;;;;;;;;;;;;;;;;;5067248;28;19920;-60
2022/12/09 10:59:05;;;;;;;;;;;;;;;;;;5067022;28;19921;-60
2022/12/09 11:01:30;;;;;;;;;;;;;;;;;;5064086;28;19931;-60
2022/12/09 11:03:57;;;;;;;;;;;;;;;;;;5069228;28;20417;-60
2022/12/09 11:06:23;;;;;;;;;;;;;;;;;;5079180;28;19927;-60
2022/12/09 11:08:53;;;;;;;25.55;14.65;;;;;;;;;;5067827;28;19924;-60
2022/12/09 11:11:19;;;;;;;20.40;12.60;;;;;;;;;;5065639;28;20581;-60
2022/12/09 11:13:45;;;;;;;;;;;;;;;;;;5066503;28;19921;-60
2022/12/09 11:16:11;;;;;;;;;;;;;;;;;;5065148;28;19927;-60
2022/12/09 11:18:37;;;;;;;;;;;;;;;;;;5067055;28;20325;-60
2022/12/09 11:21:03;;;;;;;;;;;;;;;;;;5066078;28;20294;-60
2022/12/09 11:23:29;;;;;;;;;;;;;;;;;;5065315;28;19924;-60
2022/12/09 11:25:59;;;;;;;21.63;13.23;;;;;;;;;;5069998;28;19927;-60
2022/12/09 11:28:33;;;;;;;20.17;12.80;;;;;;;;;;5069290;28;20041;-60
2022/12/09 11:31:06;;;;;;;19.95;12.70;;;;;;;;;;5069985;28;20052;-60
2022/12/09 11:33:32;;;;;;;;;;;;;;;;;;5066391;28;20398;-60
2022/12/09 11:35:57;;;;;;;;;;;;;;;;;;5069783;28;19966;-60
2022/12/09 11:38:23;;;;;;;;;;;;;;;;;;5070660;28;19950;-60
2022/12/09 11:40:49;;;;;;;;;;;;;;;;;;5069897;28;19977;-60
2022/12/09 11:43:15;;;;;;;;;;;;;;;;;;5069363;28;19974;-60
2022/12/09 11:45:45;;;;;;;24.98;14.80;;;;;;;;;;5069972;28;20270;-60
2022/12/09 11:48:31;;;;;;;22.88;14.00;;;;;;;;;;5067930;28;20135;-60
2022/12/09 11:50:57;;;;;;;27.15;15.93;;;;;;;;;;5068871;28;20056;-60
2022/12/09 11:53:23;;;;;;;;;;;;;;;;;;5070103;28;20252;-60
2022/12/09 11:55:49;;;;;;;;;;;;;;;;;;5069928;28;19927;-60
2022/12/09 11:58:15;;;;;;;;;;;;;;;;;;5068757;28;20321;-60
2022/12/09 12:00:41;;;;;;;;;;;;;;;;;;5069980;28;19924;-60
2022/12/09 12:03:07;;;;;;;;;;;;;;;;;;5070178;28;19920;-60
2022/12/09 12:05:33;;;;;;;;;;;;;;;;;;5069152;28;19943;-60
2022/12/09 12:07:59;;;;;;;19.60;12.50;;;;;;;;;;5069534;28;19981;-60
2022/12/09 12:10:27;;;;;;;23.42;14.43;;;;;;;;;;5069179;28;20123;-60
2022/12/09 12:13:13;;;;;;;19.73;13.23;;;;;;;;;;5068356;28;20445;-60
2022/12/09 12:15:48;;;;;;;20.20;12.82;;;;;;;;;;5057916;28;20491;-60
2022/12/09 12:18:18;;;;;;;19.77;11.77;;;;;;;;;;5068022;28;20146;-60
2022/12/09 12:20:44;;;;;;;;;;;;;;;;;;5069854;28;20037;-60
2022/12/09 12:23:10;;;;;;;;;;;;;;;;;;5069019;28;20498;-60
2022/12/09 12:25:36;;;;;;;;;;;;;;;;;;5069130;28;19921;-60
2022/12/09 12:28:21;;;;;;;19.17;12.35;;;;;;;;;;5069622;28;19921;-61
2022/12/09 12:30:47;;;;;;;;;;;;;;;;;;5054340;28;20041;-60
2022/12/09 12:33:13;;;;;;;;;;;;;;;;;;5066720;28;19927;-60
2022/12/09 12:35:39;;;;;;;;;;;;;;;;;;5069400;28;20306;-60
2022/12/09 12:38:05;;;;;;;;;;;;;;;;;;5068746;28;19929;-60
2022/12/09 12:40:31;;;;;;;;;;;;;;;;;;5065636;28;19924;-60
2022/12/09 12:48:26;;;;;;;;;;;;;;;;;;5069492;28;20019;-60
2022/12/09 12:50:52;;;;;;;;;;;;;;;;;;5070704;28;19927;-60
2022/12/09 12:53:18;;;;;;;;;;;;;;;;;;5074866;28;20584;-60
2022/12/09 12:55:44;;;;;;;;;;;;;;;;;;5069231;28;19920;-60
2022/12/09 12:58:10;;;;;;;;;;;;;;;;;;5067750;28;19928;-61
2022/12/09 13:00:35;;;;;;;;;;;;;;;;;;5067848;28;19921;-61
2022/12/09 13:03:01;;;;;;;;;;;;;;;;;;5067918;28;20326;-61
2022/12/09 13:05:27;;;;;;;;;;;;;;;;;;5067455;28;19928;-60
2022/12/09 13:07:53;;;;;;;;;;;;;;;;;;5072928;28;19943;-60
2022/12/09 13:10:19;;;;;;;;;;;;;;;;;;5083727;28;20255;-61
2022/12/09 13:12:55;;;;;;;;;;;;;;;;;;5067620;28;19920;-60
2022/12/09 13:15:21;;;;;;;;;;;;;;;;;;5066041;28;19924;-61
2022/12/09 13:17:47;;;;;;;;;;;;;;;;;;5073337;28;19944;-61
2022/12/09 13:20:16;;;;;;;22.02;13.32;;;;;;;;;;5066575;28;20378;-60
2022/12/09 13:22:46;;;;;;;21.77;13.45;;;;;;;;;;5066067;28;20357;-60
2022/12/09 13:25:12;;;;;;;;;;;;;;;;;;5077028;28;20290;-60
2022/12/09 13:27:38;;;;;;;;;;;;;;;;;;5070609;28;19919;-60
2022/12/09 13:30:04;;;;;;;;;;;;;;;;;;5087111;28;20012;-61
2022/12/09 13:32:30;;;;;;;;;;;;;;;;;;5059477;28;19934;-61
2022/12/09 13:34:56;;;;;;;;;;;;;;;;;;5052719;28;19924;-60
2022/12/09 13:37:22;;;;;;;;;;;;;;;;;;5057652;28;19921;-60
2022/12/09 13:39:48;;;;;;;;;;;;;;;;;;5054767;28;20368;-60
2022/12/09 13:44:59;;;;;;;;;;;;;;;;;;5057346;28;20015;-60
2022/12/09 13:47:25;;;;;;;;;;;;;;;;;;5048737;28;20431;-60
2022/12/09 13:49:50;;;;;;;;;;;;;;;;;;5051754;28;20015;-60
2022/12/09 13:52:16;;;;;;;;;;;;;;;;;;5056042;28;20302;-60
2022/12/09 13:54:42;;;;;;;;;;;;;;;;;;5053914;28;19924;-60
2022/12/09 13:57:08;;;;;;;;;;;;;;;;;;5054088;28;19924;-60
2022/12/09 13:59:36;;;;;;;;;;;;;;;;;;5056273;28;19986;-60
2022/12/09 14:02:02;;;;;;;;;;;;;;;;;;5047160;28;19974;-60
2022/12/09 14:04:28;;;;;;;;;;;;;;;;;;5051914;28;20189;-61
2022/12/09 14:06:54;;;;;;;;;;;;;;;;;;5060706;28;20373;-60
2022/12/09 14:09:27;;;;;;;;;;;;;;;;;;5187629;27;19920;-61
2022/12/09 14:11:53;;;;;;;;;;;;;;;;;;5180655;27;19923;-60
2022/12/09 14:14:19;;;;;;;;;;;;;;;;;;5179334;27;20277;-60
2022/12/09 14:16:45;;;;;;;;;;;;;;;;;;5166556;27;19927;-60
2022/12/09 14:19:11;;;;;;;;;;;;;;;;;;5167488;27;20338;-60
2022/12/09 14:21:37;;;;;;;;;;;;;;;;;;5155134;27;19930;-60
2022/12/09 14:24:03;;;;;;;;;;;;;;;;;;5176998;27;19962;-60
2022/12/09 14:26:29;;;;;;;;;;;;;;;;;;5171487;27;19985;-60
2022/12/09 14:28:55;;;;;;;;;;;;;;;;;;5172657;27;20095;-60
2022/12/09 14:31:20;;;;;;;;;;;;;;;;;;5170323;27;20083;-60
2022/12/09 14:33:46;;;;;;;;;;;;;;;;;;5177771;27;19927;-61
2022/12/09 14:36:12;;;;;;;;;;;;;;;;;;5165988;27;19927;-60
2022/12/09 14:38:38;;;;;;;;;;;;;;;;;;5176646;27;19927;-61
2022/12/09 14:41:04;;;;;;;;;;;;;;;;;;5173108;27;20388;-60
2022/12/09 14:43:30;;;;;;;;;;;;;;;;;;5175008;27;19938;-60
2022/12/09 14:45:56;;;;;;;;;;;;;;;;;;5174495;27;19930;-59
2022/12/09 14:48:22;;;;;;;;;;;;;;;;;;5178596;27;20372;-60
2022/12/09 14:50:48;;;;;;;;;;;;;;;;;;5165952;27;19926;-60
2022/12/09 14:53:14;;;;;;;;;;;;;;;;;;5163650;27;19926;-60
2022/12/09 14:55:40;;;;;;;;;;;;;;;;;;5168124;27;19926;-60
2022/12/09 14:58:06;;;;;;;;;;;;;;;;;;5178169;27;19976;-60
2022/12/09 15:00:31;;;;;;;;;;;;;;;;;;5171869;27;19927;-60
2022/12/09 15:02:57;;;;;;;;;;;;;;;;;;5165161;27;20245;-60
2022/12/09 15:05:23;;;;;;;;;;;;;;;;;;5170136;27;20226;-60
2022/12/09 15:07:49;;;;;;;;;;;;;;;;;;5163834;27;20468;-60
2022/12/09 15:10:15;;;;;;;;;;;;;;;;;;5163767;27;20419;-60
2022/12/09 15:12:41;;;;;;;;;;;;;;;;;;5169516;27;19974;-60
2022/12/09 15:15:07;;;;;;;;;;;;;;;;;;5165795;27;20001;-59
2022/12/09 15:17:33;;;;;;;;;;;;;;;;;;5171279;27;20289;-60
2022/12/09 15:19:59;;;;;;;;;;;;;;;;;;5156908;27;20150;-60
2022/12/09 15:22:25;;;;;;;;;;;;;;;;;;5154030;27;19931;-60
2022/12/09 15:24:51;;;;;;;;;;;;;;;;;;5158395;27;20526;-60
2022/12/09 15:27:16;;;;;;;;;;;;;;;;;;5159776;27;19927;-60
2022/12/09 15:29:42;;;;;;;;;;;;;;;;;;5150337;27;19927;-59
2022/12/09 15:32:08;;;;;;;;;;;;;;;;;;5156730;27;19974;-60
2022/12/09 15:34:34;;;;;;;;;;;;;;;;;;5155931;27;19970;-60
2022/12/09 15:37:00;;;;;;;;;;;;;;;;;;5165051;27;19979;-60
2022/12/09 15:39:26;;;;;;;;;;;;;;;;;;5157585;27;19975;-60
2022/12/09 15:42:08;;;;;;;;;;;;;;;;;;5149765;27;20418;-60
2022/12/09 15:44:34;;;;;;;;;;;;;;;;;;5151250;27;19923;-60
2022/12/09 15:47:00;;;;;;;;;;;;;;;;;;5148331;27;19937;-60
2022/12/09 15:49:26;;;;;;;;;;;;;;;;;;5146792;27;20313;-59
2022/12/09 15:51:51;;;;;;;;;;;;;;;;;;5148614;27;19976;-59
2022/12/09 15:54:17;;;;;;;;;;;;;;;;;;5149923;27;19987;-59
2022/12/09 15:56:43;;;;;;;;;;;;;;;;;;5163765;27;19990;-59
2022/12/09 15:59:09;;;;;;;;;;;;;;;;;;5160635;27;19952;-60
2022/12/09 16:01:35;;;;;;;;;;;;;;;;;;5150840;27;19931;-59
2022/12/09 16:04:01;;;;;;;;;;;;;;;;;;5154711;27;20408;-59
2022/12/09 16:06:27;;;;;;;;;;;;;;;;;;5152768;27;20009;-59
2022/12/09 16:08:53;;;;;;;;;;;;;;;;;;5155874;27;19923;-59
2022/12/09 16:11:19;;;;;;;;;;;;;;;;;;5152288;27;20286;-59
2022/12/09 16:13:45;;;;;;;;;;;;;;;;;;5156973;27;20196;-59
2022/12/09 16:16:11;;;;;;;;;;;;;;;;;;5153830;27;20301;-59
2022/12/09 16:18:37;;;;;;;;;;;;;;;;;;5158724;27;19923;-59
2022/12/09 16:21:03;;;;;;;;;;;;;;;;;;5149542;27;19923;-59
2022/12/09 16:23:28;;;;;;;;;;;;;;;;;;5154571;27;20355;-59
2022/12/09 16:25:54;;;;;;;;;;;;;;;;;;5151185;27;19923;-59
2022/12/09 16:28:21;;;;;;;;;;;;;;;;;;5161038;27;19927;-59
2022/12/09 16:30:47;;;;;;;;;;;;;;;;;;5148471;27;20223;-59
2022/12/09 16:33:13;;;;;;;;;;;;;;;;;;5149580;27;20462;-59
2022/12/09 16:35:38;;;;;;;;;;;;;;;;;;5149744;27;20068;-59
2022/12/09 16:38:04;;;;;;;;;;;;;;;;;;5158474;27;19923;-59
2022/12/09 16:40:31;;;;;;;;;;;;;;;;;;5161592;27;20365;-59